Time;durP1;ratioP1;P1;durP2;ratioP2;P2;SDS_P1;SDS_P2;PMS_P1;PMS_P2;Temp;Humidity;BMP_temperature;BMP_pressure;BME280_temperature;BME280_humidity;BME280_pressure;Samples;Min_cycle;Max_cycle;Signal;HPM_P1;HPM_P2
2022/05/21 00:00:57;;;;;;;;;;;13.40;99.80;;;;;;10415717;28;83268;-49
2022/05/21 00:05:58;;;;;;;;;;;13.30;99.90;;;;;;10396848;28;83777;-47
2022/05/21 00:10:59;;;;;;;;;;;13.20;99.90;;;;;;10397786;28;83917;-52
2022/05/21 00:15:59;;;;;;;;;;;13.30;99.90;;;;;;10416047;28;83432;-53
2022/05/21 00:21:00;;;;;;;;;;;13.30;99.90;;;;;;10380598;28;85116;-53
2022/05/21 00:26:05;;;;;;;;;;;13.20;99.90;;;;;;10414755;28;84055;-49
2022/05/21 00:31:06;;;;;;;;;;;13.10;99.90;;;;;;10372457;28;83744;-52
2022/05/21 00:36:07;;;;;;;;;;;13.20;99.90;;;;;;10373230;28;83215;-49
2022/05/21 00:41:09;;;;;;;;;;;13.10;99.90;;;;;;10372516;28;84339;-50
2022/05/21 00:46:19;;;;;;;;;;;13.10;99.90;;;;;;10355046;28;84152;-56
2022/05/21 00:51:21;;;;;;;;;;;13.10;99.90;;;;;;10354601;28;84156;-53
2022/05/21 00:56:24;;;;;;;;;;;13.00;99.90;;;;;;10372688;28;83888;-51
2022/05/21 01:01:26;;;;;;;;;;;13.00;99.90;;;;;;10386694;28;84113;-51
2022/05/21 01:06:28;;;;;;;;;;;12.90;99.90;;;;;;10378458;28;85428;-48
2022/05/21 01:11:29;;;;;;;;;;;13.00;99.90;;;;;;10395000;28;84069;-50
2022/05/21 01:16:31;;;;;;;;;;;13.00;99.90;;;;;;10413216;28;84951;-52
2022/05/21 01:21:31;;;;;;;;;;;13.00;99.90;;;;;;10395319;28;86494;-50
2022/05/21 01:26:33;;;;;;;;;;;13.10;99.90;;;;;;10394418;28;83666;-50
2022/05/21 01:31:33;;;;;;;;;;;13.10;99.90;;;;;;10412812;28;83707;-51
2022/05/21 01:36:34;;;;;;;;;;;13.20;99.90;;;;;;10414488;28;84074;-49
2022/05/21 01:41:34;;;;;;;;;;;13.20;99.90;;;;;;10414065;28;84900;-50
2022/05/21 01:46:35;;;;;;;;;;;13.10;99.90;;;;;;10412990;28;84119;-48
2022/05/21 01:51:36;;;;;;;;;;;13.20;99.90;;;;;;10395190;28;83995;-45
2022/05/21 01:56:37;;;;;;;;;;;13.30;99.90;;;;;;10411288;28;83788;-50
2022/05/21 02:01:37;;;;;;;;;;;13.30;99.90;;;;;;10411625;28;83927;-47
2022/05/21 02:06:38;;;;;;;;;;;13.30;99.90;;;;;;10392797;28;85256;-51
2022/05/21 02:11:39;;;;;;;;;;;13.20;99.90;;;;;;10411409;28;83130;-53
2022/05/21 02:16:39;;;;;;;;;;;13.10;99.90;;;;;;10411452;28;84018;-53
2022/05/21 02:21:40;;;;;;;;;;;13.10;99.90;;;;;;10411177;28;84010;-53
2022/05/21 02:26:41;;;;;;;;;;;13.00;99.90;;;;;;10410917;28;84691;-52
2022/05/21 02:31:41;;;;;;;;;;;13.00;99.90;;;;;;10410907;28;84140;-53
2022/05/21 02:42:01;;;;;;;;;;;12.80;99.90;;;;;;10372192;28;83757;-51
2022/05/21 02:47:02;;;;;;;;;;;12.80;99.90;;;;;;10368814;28;83408;-52
2022/05/21 02:52:03;;;;;;;;;;;12.70;99.90;;;;;;10370245;28;84224;-49
2022/05/21 02:57:03;;;;;;;;;;;12.80;99.90;;;;;;10392952;28;83885;-53
2022/05/21 03:02:04;;;;;;;;;;;12.80;99.90;;;;;;10412958;28;83784;-53
2022/05/21 03:07:05;;;;;;;;;;;12.80;99.90;;;;;;10419199;28;83379;-52
2022/05/21 03:12:06;;;;;;;;;;;12.80;99.90;;;;;;10408486;28;83484;-48
2022/05/21 03:17:06;;;;;;;;;;;12.90;99.90;;;;;;10377193;28;83758;-51
2022/05/21 03:22:08;;;;;;;;;;;12.90;99.90;;;;;;10358143;28;84796;-50
2022/05/21 03:27:09;;;;;;;;;;;13.00;99.90;;;;;;10402299;28;84315;-47
2022/05/21 03:32:09;;;;;;;;;;;13.00;99.90;;;;;;10416365;28;83697;-51
2022/05/21 03:37:10;;;;;;;;;;;13.00;99.90;;;;;;10416327;28;84090;-49
2022/05/21 03:42:10;;;;;;;;;;;13.10;99.90;;;;;;10415384;28;83763;-49
2022/05/21 03:47:11;;;;;;;;;;;13.10;99.90;;;;;;10415227;28;84206;-46
2022/05/21 03:52:11;;;;;;;;;;;13.10;99.90;;;;;;10397431;28;85158;-47
2022/05/21 03:57:14;;;;;;;;;;;13.10;99.90;;;;;;10415042;28;84005;-50
2022/05/21 04:02:15;;;;;;;;;;;13.10;99.90;;;;;;10415488;28;84107;-53
2022/05/21 04:07:15;;;;;;;;;;;13.10;99.90;;;;;;10397131;28;85244;-52
2022/05/21 04:12:16;;;;;;;;;;;13.10;99.90;;;;;;10415651;28;83268;-51
2022/05/21 04:17:16;;;;;;;;;;;13.00;99.90;;;;;;10414911;28;83875;-50
2022/05/21 04:22:17;;;;;;;;;;;13.10;99.90;;;;;;10414170;28;83702;-48
2022/05/21 04:27:17;;;;;;;;;;;13.10;99.90;;;;;;10414301;28;84154;-48
2022/05/21 04:32:19;;;;;;;;;;;13.10;99.90;;;;;;10413821;28;84008;-48
2022/05/21 04:37:21;;;;;;;;;;;13.10;99.90;;;;;;10413738;28;84059;-49
2022/05/21 04:42:21;;;;;;;;;;;13.20;99.90;;;;;;10407140;28;84142;-50
2022/05/21 04:47:22;;;;;;;;;;;13.30;99.90;;;;;;10423153;22;85295;-46
2022/05/21 04:52:22;;;;;;;;;;;13.30;99.90;;;;;;10434875;28;84060;-50
2022/05/21 04:57:23;;;;;;;;;;;13.50;99.90;;;;;;10429382;28;83753;-48
2022/05/21 05:02:23;;;;;;;;;;;13.50;99.90;;;;;;10435545;28;84130;-52
2022/05/21 05:07:24;;;;;;;;;;;13.50;99.90;;;;;;10419131;28;83578;-51
2022/05/21 05:12:25;;;;;;;;;;;13.50;99.90;;;;;;10411231;28;86335;-52
2022/05/21 05:17:25;;;;;;;;;;;13.60;99.90;;;;;;10403526;28;84166;-48
2022/05/21 05:22:26;;;;;;;;;;;13.60;99.90;;;;;;10422908;28;83837;-49
2022/05/21 05:27:27;;;;;;;;;;;13.70;99.90;;;;;;10436047;27;83953;-49
2022/05/21 05:32:27;;;;;;;;;;;13.70;99.90;;;;;;10418216;28;83709;-47
2022/05/21 05:37:28;;;;;;;;;;;13.70;99.90;;;;;;10409037;28;84108;-48
2022/05/21 05:42:28;;;;;;;;;;;13.80;99.90;;;;;;10410094;28;84191;-52
2022/05/21 05:47:31;;;;;;;;;;;13.90;99.90;;;;;;10410274;28;83380;-52
2022/05/21 05:52:31;;;;;;;;;;;14.00;99.90;;;;;;10411300;28;83415;-49
2022/05/21 05:57:32;;;;;;;;;;;14.10;99.90;;;;;;10402009;28;83915;-50
2022/05/21 06:07:53;;;;;;;;;;;14.40;43.80;;;;;;10398487;28;84216;-50
2022/05/21 06:12:54;;;;;;;;;;;14.60;23.80;;;;;;10404640;28;84203;-51
2022/05/21 06:17:55;;;;;;;;;;;14.60;3.30;;;;;;10387288;28;85661;-50
2022/05/21 06:22:55;;;;;;;;;;;14.60;7.80;;;;;;10388021;28;84845;-48
2022/05/21 06:27:56;;;;;;;;;;;14.60;8.70;;;;;;10390810;28;83852;-51
2022/05/21 06:33:09;;;;;;;;;;;14.70;1.00;;;;;;10408533;28;83324;-49
2022/05/21 06:38:10;;;;;;;;;;;14.80;1.00;;;;;;10403163;28;84656;-50
2022/05/21 06:43:10;;;;;;;;;;;14.70;3.00;;;;;;10404002;28;84765;-53
2022/05/21 06:48:11;;;;;;;;;;;14.70;1.00;;;;;;10402477;28;84520;-53
2022/05/21 06:53:12;;;;;;;;;;;14.80;1.00;;;;;;10403634;28;83409;-56
2022/05/21 06:58:12;;;;;;;;;;;14.80;1.00;;;;;;10404649;28;84051;-51
2022/05/21 07:03:13;;;;;;;;;;;14.80;1.00;;;;;;10402479;28;83754;-61
2022/05/21 07:08:24;;;;;;;;;;;14.90;1.00;;;;;;10403809;28;83425;-61
2022/05/21 07:13:25;;;;;;;;;;;15.30;1.00;;;;;;10386286;28;84186;-60
2022/05/21 07:18:27;;;;;;;;;;;15.60;1.00;;;;;;10402696;28;85804;-61
2022/05/21 07:23:28;;;;;;;;;;;15.90;1.00;;;;;;10399952;28;83477;-60
2022/05/21 07:28:29;;;;;;;;;;;15.90;1.00;;;;;;10400882;28;83475;-61
2022/05/21 07:33:30;;;;;;;;;;;16.20;1.00;;;;;;10402534;28;84495;-61
2022/05/21 07:38:30;;;;;;;;;;;16.50;1.00;;;;;;10367352;28;87168;-60
2022/05/21 07:43:31;;;;;;;;;;;17.20;1.00;;;;;;10402385;28;84074;-61
2022/05/21 07:48:32;;;;;;;;;;;17.70;1.00;;;;;;10401732;28;84080;-61
2022/05/21 07:53:34;;;;;;;;;;;17.80;1.00;;;;;;10389724;28;83696;-60
2022/05/21 07:58:34;;;;;;;;;;;17.60;1.00;;;;;;10409261;28;83238;-51
2022/05/21 08:03:35;;;;;;;;;;;17.50;1.00;;;;;;10409738;28;84653;-51
2022/05/21 08:08:35;;;;;;;;;;;17.40;1.00;;;;;;10389122;28;86090;-53
2022/05/21 08:13:36;;;;;;;;;;;17.30;1.00;;;;;;10407132;28;84293;-52
2022/05/21 08:18:36;;;;;;;;;;;16.90;1.00;;;;;;10390933;28;86318;-54
2022/05/21 08:28:58;;;;;;;;;;;17.20;1.00;;;;;;10406165;28;83495;-53
2022/05/21 08:34:00;;;;;;;;;;;17.20;1.00;;;;;;10408937;28;83560;-51
2022/05/21 08:39:02;;;;;;;;;;;18.30;1.00;;;;;;10408718;28;83504;-54
2022/05/21 08:44:02;;;;;;;;;;;18.20;1.00;;;;;;10390483;28;86225;-52
2022/05/21 08:49:04;;;;;;;;;;;17.90;1.00;;;;;;10407735;28;83552;-56
2022/05/21 08:54:05;;;;;;;;;;;18.30;1.00;;;;;;10402649;28;84543;-53
2022/05/21 08:59:07;;;;;;;;;;;18.70;99.90;;;;;;10409586;28;83521;-54
2022/05/21 09:04:11;;;;;;;;;;;18.80;99.90;;;;;;10406846;28;83919;-51
2022/05/21 09:09:20;;;;;;;;;;;19.20;99.90;;;;;;10400215;28;84412;-53
2022/05/21 09:14:32;;;;;;;;;;;18.40;99.90;;;;;;10385406;28;83565;-55
2022/05/21 09:19:37;;;;;;;;;;;18.50;99.90;;;;;;10405406;28;84234;-53
2022/05/21 09:24:51;;;;;;;;;;;19.90;89.20;;;;;;10405123;28;83371;-55
2022/05/21 09:30:13;;;;;;;;;;;20.80;1.00;;;;;;10407357;28;83978;-56
2022/05/21 09:35:17;;;;;;;;;;;20.40;1.00;;;;;;10404975;28;83575;-58
2022/05/21 09:40:17;;;;;;;;;;;19.20;1.00;;;;;;10386727;28;85125;-56
2022/05/21 09:45:24;;;;;;;;;;;18.70;99.90;;;;;;10404075;28;83538;-57
2022/05/21 09:50:26;;;;;;;;;;;18.80;99.90;;;;;;10404958;28;83223;-60
2022/05/21 09:55:28;;;;;;;;;;;19.20;99.90;;;;;;10403729;28;83353;-55
2022/05/21 10:00:33;;;;;;;;;;;18.90;99.90;;;;;;10387953;28;86431;-55
2022/05/21 10:05:40;;;;;;;;;;;18.20;99.90;;;;;;10406688;28;83500;-57
2022/05/21 10:11:00;;;;;;;;;;;18.00;1.00;;;;;;10406369;28;84098;-56
2022/05/21 10:16:14;;;;;;;;;;;18.20;1.00;;;;;;10406374;28;84180;-57
2022/05/21 10:21:18;;;;;;;;;;;19.80;99.90;;;;;;10406592;28;85024;-58
2022/05/21 10:26:38;;;;;;;;;;;21.30;1.00;;;;;;10408773;28;84160;-59
2022/05/21 10:32:11;;;;;;;;;;;21.10;1.00;;;;;;10398582;28;83597;-55
2022/05/21 10:37:22;;;;;;;;;;;20.10;1.00;;;;;;10356583;28;84420;-54
2022/05/21 10:42:43;;;;;;;;;;;19.30;1.00;;;;;;10404178;28;104474;-56
2022/05/21 10:47:53;;;;;;;;;;;19.70;1.00;;;;;;10404053;28;84298;-53
2022/05/21 10:53:02;;;;;;;;;;;19.90;1.00;;;;;;10405877;28;84230;-56
2022/05/21 10:58:14;;;;;;;;;;;19.60;1.00;;;;;;10398475;28;84083;-57
2022/05/21 11:03:15;;;;;;;;;;;19.20;1.00;;;;;;10408836;28;83691;-51
2022/05/21 11:08:21;;;;;;;;;;;18.90;1.00;;;;;;10425931;28;85131;-53
2022/05/21 11:13:27;;;;;;;;;;;19.70;1.00;;;;;;10436615;28;85186;-50
2022/05/21 11:18:33;;;;;;;;;;;20.00;1.00;;;;;;10417841;28;85672;-53
2022/05/21 11:23:57;;;;;;;;;;;20.00;99.90;;;;;;10412532;28;84151;-49
2022/05/21 11:29:01;;;;;;;;;;;19.70;99.90;;;;;;10393832;28;84088;-52
2022/05/21 11:39:20;;;;;;;;;;;19.70;1.00;;;;;;10411909;28;84411;-50
2022/05/21 11:49:41;;;;;;;;;;;20.90;99.90;;;;;;10412920;28;83945;-52
2022/05/21 11:54:44;;;;;;;;;;;21.00;1.00;;;;;;10412755;28;84151;-49
2022/05/21 11:59:49;;;;;;;;;;;21.10;1.00;;;;;;10411286;28;83949;-51
2022/05/21 12:04:51;;;;;;;;;;;22.20;1.00;;;;;;10406815;28;83562;-51
2022/05/21 12:10:03;;;;;;;;;;;22.80;1.00;;;;;;10411097;28;84460;-52
2022/05/21 12:15:14;;;;;;;;;;;23.30;99.90;;;;;;10403155;28;83562;-52
2022/05/21 12:20:16;;;;;;;;;;;23.90;99.90;;;;;;10408610;28;83336;-55
2022/05/21 12:25:35;;;;;;;;;;;25.30;99.90;;;;;;10407722;28;83394;-52
2022/05/21 12:30:36;;;;;;;;;;;26.30;1.00;;;;;;10402432;28;84211;-51
2022/05/21 12:35:59;;;;;;;;;;;24.30;1.00;;;;;;10404679;28;83508;-52
2022/05/21 12:41:03;;;;;;;;;;;23.00;99.90;;;;;;10408827;28;83582;-53
2022/05/21 12:46:04;;;;;;;;;;;22.10;1.00;;;;;;10393314;28;83449;-58
2022/05/21 12:51:07;;;;;;;;;;;21.30;68.50;;;;;;10378283;28;85149;-62
2022/05/21 12:56:14;;;;;;;;;;;21.10;1.00;;;;;;10398510;28;83622;-57
2022/05/21 13:01:24;;;;;;;;;;;20.80;99.90;;;;;;10404037;28;84333;-56
2022/05/21 13:06:27;;;;;;;;;;;20.40;1.00;;;;;;10391560;28;83423;-58
2022/05/21 13:11:35;;;;;;;;;;;20.50;99.90;;;;;;10409271;28;84115;-58
2022/05/21 13:16:45;;;;;;;;;;;20.60;31.00;;;;;;10403081;28;84105;-57
2022/05/21 13:21:51;;;;;;;;;;;21.30;1.00;;;;;;10404904;28;83416;-65
2022/05/21 13:27:12;;;;;;;;;;;21.50;99.90;;;;;;10391311;28;84229;-61
2022/05/21 13:32:14;;;;;;;;;;;21.20;99.90;;;;;;10379371;28;83498;-62
2022/05/21 13:37:15;;;;;;;;;;;21.30;1.00;;;;;;10389740;28;84202;-60
2022/05/21 13:42:18;;;;;;;;;;;21.50;99.90;;;;;;10409233;28;83987;-56
2022/05/21 13:47:26;;;;;;;;;;;21.30;1.00;;;;;;10407769;28;84080;-54
2022/05/21 13:52:27;;;;;;;;;;;20.80;1.00;;;;;;10393003;28;83604;-58
2022/05/21 13:57:31;;;;;;;;;;;20.30;1.00;;;;;;10368228;28;84653;-59
2022/05/21 14:02:42;;;;;;;;;;;20.30;99.90;;;;;;10368902;28;83983;-54
2022/05/21 14:07:48;;;;;;;;;;;20.40;99.90;;;;;;10379764;28;84007;-60
2022/05/21 14:12:50;;;;;;;;;;;20.80;1.00;;;;;;10389539;28;84310;-56
2022/05/21 14:17:58;;;;;;;;;;;20.90;1.00;;;;;;10397396;28;84174;-58
2022/05/21 14:23:19;;;;;;;;;;;21.10;43.90;;;;;;10391695;28;84515;-53
2022/05/21 14:28:21;;;;;;;;;;;21.30;1.00;;;;;;10398257;28;84210;-56
2022/05/21 14:33:26;;;;;;;;;;;21.30;99.90;;;;;;10400338;28;83638;-57
2022/05/21 14:38:28;;;;;;;;;;;21.30;1.00;;;;;;10404790;28;84010;-53
2022/05/21 14:43:36;;;;;;;;;;;21.20;1.00;;;;;;10402141;28;83491;-57
2022/05/21 14:48:36;;;;;;;;;;;21.20;1.00;;;;;;10398559;28;84054;-52
2022/05/21 14:53:41;;;;;;;;;;;21.10;1.00;;;;;;10407129;28;84236;-52
2022/05/21 14:58:42;;;;;;;;;;;21.00;99.90;;;;;;10374041;28;86083;-53
2022/05/21 15:03:44;;;;;;;;;;;20.90;99.90;;;;;;10398888;28;85129;-57
2022/05/21 15:08:45;;;;;;;;;;;20.80;1.00;;;;;;10414123;28;84776;-54
2022/05/21 15:13:46;;;;;;;;;;;20.80;1.00;;;;;;10414838;28;84151;-55
2022/05/21 15:18:47;;;;;;;;;;;21.00;1.00;;;;;;10413546;28;83952;-55
2022/05/21 15:23:47;;;;;;;;;;;21.00;1.00;;;;;;10413295;28;84085;-56
2022/05/21 15:28:48;;;;;;;;;;;20.90;1.00;;;;;;10408298;28;84327;-51
2022/05/21 15:33:50;;;;;;;;;;;20.80;1.00;;;;;;10409873;28;83448;-53
2022/05/21 15:38:51;;;;;;;;;;;20.80;1.00;;;;;;10393046;28;85398;-55
2022/05/21 15:43:54;;;;;;;;;;;20.80;1.00;;;;;;10401580;28;84117;-52
2022/05/21 15:48:55;;;;;;;;;;;20.60;99.90;;;;;;10403867;28;83388;-55
2022/05/21 15:53:56;;;;;;;;;;;20.50;99.90;;;;;;10411484;28;83295;-53
2022/05/21 15:58:57;;;;;;;;;;;20.30;1.00;;;;;;10384567;28;84269;-54
2022/05/21 16:03:58;;;;;;;;;;;20.40;1.00;;;;;;10440185;22;84200;-49
2022/05/21 16:08:59;;;;;;;;;;;20.50;1.00;;;;;;10460544;27;84381;-49
2022/05/21 16:14:00;;;;;;;;;;;20.30;1.00;;;;;;10487263;27;83983;-47
2022/05/21 16:19:00;;;;;;;;;;;20.40;99.90;;;;;;10446351;28;84116;-52
2022/05/21 16:24:01;;;;;;;;;;;20.40;99.90;;;;;;10445315;27;84414;-51
2022/05/21 16:29:03;;;;;;;;;;;20.20;1.00;;;;;;10421238;28;86207;-56
2022/05/21 16:34:04;;;;;;;;;;;20.20;1.00;;;;;;10415098;28;85189;-48
2022/05/21 16:39:04;;;;;;;;;;;20.10;1.00;;;;;;10449785;28;84098;-49
2022/05/21 16:44:05;;;;;;;;;;;19.90;1.00;;;;;;10447286;27;83839;-49
2022/05/21 16:49:05;;;;;;;;;;;19.80;99.90;;;;;;10435883;28;84333;-54
2022/05/21 16:54:06;;;;;;;;;;;19.70;1.00;;;;;;10454133;27;83318;-49
2022/05/21 16:59:07;;;;;;;;;;;19.50;1.00;;;;;;10453147;28;83986;-52
2022/05/21 17:04:08;;;;;;;;;;;19.50;99.90;;;;;;10438510;27;83370;-54
2022/05/21 17:09:10;;;;;;;;;;;19.70;1.00;;;;;;10442356;28;83878;-56
2022/05/21 17:14:11;;;;;;;;;;;19.50;1.00;;;;;;10450859;27;84121;-49
2022/05/21 17:19:11;;;;;;;;;;;19.40;99.90;;;;;;10444013;28;84145;-51
2022/05/21 17:24:12;;;;;;;;;;;19.30;1.00;;;;;;10442975;27;83453;-54
2022/05/21 17:34:33;;;;;;;;;;;19.30;99.90;;;;;;10434341;27;85130;-54
2022/05/21 17:39:33;;;;;;;;;;;19.20;1.00;;;;;;10453087;28;83395;-51
2022/05/21 17:44:34;;;;;;;;;;;19.20;1.00;;;;;;10453768;27;83331;-52
2022/05/21 17:49:34;;;;;;;;;;;19.00;1.00;;;;;;10450607;28;83532;-52
2022/05/21 17:54:35;;;;;;;;;;;19.00;8.40;;;;;;10446407;28;84026;-51
2022/05/21 17:59:35;;;;;;;;;;;18.80;99.90;;;;;;10450423;28;83472;-47
2022/05/21 18:04:36;;;;;;;;;;;18.70;1.00;;;;;;10448619;28;84164;-46
2022/05/21 18:09:37;;;;;;;;;;;18.60;1.00;;;;;;10440927;28;83930;-49
2022/05/21 18:14:38;;;;;;;;;;;18.60;1.00;;;;;;10441460;28;84052;-53
2022/05/21 18:19:38;;;;;;;;;;;18.50;1.00;;;;;;10451482;28;83315;-48
2022/05/21 18:24:39;;;;;;;;;;;18.50;52.40;;;;;;10421481;28;84100;-51
2022/05/21 18:29:40;;;;;;;;;;;18.40;99.90;;;;;;10444310;28;84104;-47
2022/05/21 18:34:41;;;;;;;;;;;18.30;99.90;;;;;;10420394;28;83754;-50
2022/05/21 18:39:43;;;;;;;;;;;18.20;1.00;;;;;;10422210;28;83782;-46
2022/05/21 18:44:44;;;;;;;;;;;18.10;1.00;;;;;;10433595;28;84901;-49
2022/05/21 18:49:45;;;;;;;;;;;18.10;1.00;;;;;;10438730;28;85093;-47
2022/05/21 18:54:45;;;;;;;;;;;18.00;1.00;;;;;;10444769;27;83785;-48
2022/05/21 18:59:46;;;;;;;;;;;17.90;1.00;;;;;;10432772;28;84103;-47
2022/05/21 19:04:47;;;;;;;;;;;17.80;1.00;;;;;;10438309;27;84425;-51
2022/05/21 19:09:48;;;;;;;;;;;17.80;1.00;;;;;;10409826;28;84897;-48
2022/05/21 19:14:48;;;;;;;;;;;17.70;1.00;;;;;;10408937;28;84614;-50
2022/05/21 19:19:49;;;;;;;;;;;17.60;1.00;;;;;;10395102;28;84064;-49
2022/05/21 19:24:49;;;;;;;;;;;17.50;1.00;;;;;;10442360;28;84172;-54
2022/05/21 19:29:54;;;;;;;;;;;17.40;59.70;;;;;;10431155;28;85022;-49
2022/05/21 19:34:55;;;;;;;;;;;17.30;99.90;;;;;;10450159;27;84069;-51
2022/05/21 19:45:14;;;;;;;;;;;17.10;99.90;;;;;;10443320;27;84196;-46
2022/05/21 19:50:15;;;;;;;;;;;17.00;99.90;;;;;;10431763;28;84836;-49
2022/05/21 19:55:17;;;;;;;;;;;16.90;99.90;;;;;;10429419;28;84053;-51
2022/05/21 20:00:18;;;;;;;;;;;16.80;99.90;;;;;;10438647;28;83409;-50
2022/05/21 20:05:19;;;;;;;;;;;16.70;99.90;;;;;;10426365;28;84085;-48
2022/05/21 20:10:19;;;;;;;;;;;16.50;1.00;;;;;;10417148;28;83723;-50
2022/05/21 20:15:20;;;;;;;;;;;16.40;1.00;;;;;;10419574;28;84008;-53
2022/05/21 20:20:21;;;;;;;;;;;16.30;1.00;;;;;;10405497;28;86369;-46
2022/05/21 20:25:22;;;;;;;;;;;16.20;1.00;;;;;;10426000;28;84156;-47
2022/05/21 20:30:23;;;;;;;;;;;16.10;1.00;;;;;;10421572;28;83780;-50
2022/05/21 20:35:25;;;;;;;;;;;16.10;1.00;;;;;;10425727;28;85407;-51
2022/05/21 20:40:25;;;;;;;;;;;15.90;1.00;;;;;;10427481;28;83631;-46
2022/05/21 20:45:26;;;;;;;;;;;15.80;1.00;;;;;;10418473;28;84299;-47
2022/05/21 20:50:27;;;;;;;;;;;15.80;1.00;;;;;;10428116;28;85418;-48
2022/05/21 20:55:27;;;;;;;;;;;15.80;1.00;;;;;;10437846;27;84130;-46
2022/05/21 21:00:28;;;;;;;;;;;15.60;1.00;;;;;;10430856;28;84505;-50
2022/05/21 21:05:28;;;;;;;;;;;15.50;1.00;;;;;;10443117;27;83877;-48
2022/05/21 21:10:29;;;;;;;;;;;15.40;1.00;;;;;;10425713;28;84052;-48
2022/05/21 21:15:30;;;;;;;;;;;15.30;1.00;;;;;;10438257;28;84153;-48
2022/05/21 21:20:30;;;;;;;;;;;15.20;1.00;;;;;;10430371;28;83815;-48
2022/05/21 21:25:31;;;;;;;;;;;15.10;1.00;;;;;;10433213;27;84913;-47
2022/05/21 21:30:32;;;;;;;;;;;15.00;1.00;;;;;;10442231;28;83648;-49
2022/05/21 21:35:32;;;;;;;;;;;14.90;1.00;;;;;;10427881;28;84028;-48
2022/05/21 21:40:33;;;;;;;;;;;14.80;1.00;;;;;;10428588;28;84000;-49
2022/05/21 21:45:33;;;;;;;;;;;14.80;1.00;;;;;;10442786;27;84019;-50
2022/05/21 21:50:34;;;;;;;;;;;14.70;1.00;;;;;;10427459;28;83651;-47
2022/05/21 21:55:35;;;;;;;;;;;14.70;1.00;;;;;;10411299;28;83635;-47
2022/05/21 22:06:12;;;;;;;;;;;14.50;1.00;;;;;;10489521;22;84043;-55
2022/05/21 22:11:13;;;;;;;;;;;14.40;1.00;;;;;;10470294;27;84449;-50
2022/05/21 22:16:13;;;;;;;;;;;14.40;1.00;;;;;;10472139;27;83672;-52
2022/05/21 22:21:14;;;;;;;;;;;14.30;1.00;;;;;;10476756;27;83300;-53
2022/05/21 22:26:15;;;;;;;;;;;14.20;1.00;;;;;;10479189;27;83212;-55
2022/05/21 22:31:16;;;;;;;;;;;14.30;1.00;;;;;;10471407;27;83211;-53
2022/05/21 22:36:16;;;;;;;;;;;14.10;1.00;;;;;;10478828;27;83269;-55
2022/05/21 22:41:17;;;;;;;;;;;14.00;1.00;;;;;;10455403;27;84074;-56
2022/05/21 22:46:19;;;;;;;;;;;14.00;1.00;;;;;;10452310;27;85063;-57
2022/05/21 22:51:21;;;;;;;;;;;13.90;1.00;;;;;;10476104;27;84167;-58
2022/05/21 22:56:22;;;;;;;;;;;13.90;1.00;;;;;;10471494;27;86051;-58
2022/05/21 23:01:23;;;;;;;;;;;13.80;1.00;;;;;;10443061;27;84092;-53
2022/05/21 23:06:23;;;;;;;;;;;13.80;1.00;;;;;;10449567;28;84291;-53
2022/05/21 23:11:24;;;;;;;;;;;13.70;1.00;;;;;;10451115;28;83366;-54
2022/05/21 23:27:03;;;;;;;;;;;13.60;1.00;;;;;;10431286;28;83532;-53
2022/05/21 23:32:04;;;;;;;;;;;13.50;1.00;;;;;;10458046;28;83871;-52
2022/05/21 23:37:09;;;;;;;;;;;13.50;1.00;;;;;;10458746;27;83280;-53
2022/05/21 23:42:10;;;;;;;;;;;13.50;1.00;;;;;;10437264;27;83986;-54
2022/05/21 23:47:12;;;;;;;;;;;13.50;1.00;;;;;;10416831;28;83618;-55
2022/05/21 23:52:16;;;;;;;;;;;13.50;1.00;;;;;;10427374;28;84087;-56
2022/05/21 23:57:17;;;;;;;;;;;13.40;1.00;;;;;;10457657;27;83331;-54
